createdAt,value
2022-12-26T00:01:34.240Z,13.30
2022-12-26T00:04:04.517Z,13.30
2022-12-26T00:06:33.959Z,13.30
2022-12-26T00:09:04.206Z,13.30
2022-12-26T00:11:33.325Z,13.30
2022-12-26T00:14:04.046Z,13.30
2022-12-26T00:16:32.684Z,13.30
2022-12-26T00:19:01.081Z,13.30
2022-12-26T00:21:31.097Z,13.30
2022-12-26T00:24:00.193Z,13.10
2022-12-26T00:26:31.311Z,13.10
2022-12-26T00:28:59.854Z,13.10
2022-12-26T00:31:32.082Z,13.10
2022-12-26T00:34:01.043Z,13.10
2022-12-26T00:36:33.421Z,13.10
2022-12-26T00:39:03.646Z,13.10
2022-12-26T00:41:32.428Z,13.10
2022-12-26T00:44:01.672Z,13.10
2022-12-26T00:46:30.168Z,13.10
2022-12-26T00:48:58.796Z,13.10
2022-12-26T00:51:27.156Z,13.10
2022-12-26T00:53:57.041Z,13.10
2022-12-26T00:56:25.404Z,12.80
2022-12-26T00:58:54.135Z,13.10
2022-12-26T01:01:24.125Z,13.10
2022-12-26T01:03:53.200Z,13.10
2022-12-26T01:06:21.554Z,13.10
2022-12-26T01:08:49.866Z,13.10
2022-12-26T01:11:40.172Z,13.10
2022-12-26T01:14:12.119Z,13.10
2022-12-26T01:16:40.629Z,13.10
2022-12-26T01:19:09.213Z,13.10
2022-12-26T01:21:37.743Z,13.20
2022-12-26T01:24:06.973Z,13.20
2022-12-26T01:26:37.589Z,13.20
2022-12-26T01:29:06.885Z,13.20
2022-12-26T01:31:35.420Z,13.20
2022-12-26T01:34:03.639Z,13.20
2022-12-26T01:36:31.859Z,13.20
2022-12-26T01:39:00.121Z,13.20
2022-12-26T01:41:30.374Z,13.20
2022-12-26T01:44:02.695Z,13.20
2022-12-26T01:46:35.267Z,13.20
2022-12-26T01:49:09.176Z,13.20
2022-12-26T01:51:40.650Z,13.20
2022-12-26T01:54:37.582Z,13.20
2022-12-26T01:57:02.563Z,13.20
2022-12-26T01:59:35.101Z,13.20
2022-12-26T02:02:04.380Z,13.20
2022-12-26T02:04:54.969Z,13.20
2022-12-26T02:07:24.600Z,13.20
2022-12-26T02:09:52.983Z,13.20
2022-12-26T02:12:35.808Z,13.20
2022-12-26T02:15:13.037Z,13.20
2022-12-26T02:17:42.104Z,13.20
2022-12-26T02:20:19.955Z,13.20
2022-12-26T02:23:24.096Z,13.00
2022-12-26T02:26:21.149Z,13.20
2022-12-26T02:29:15.940Z,13.30
2022-12-26T02:31:51.496Z,13.30
2022-12-26T02:34:24.766Z,13.20
2022-12-26T02:37:13.078Z,13.30
2022-12-26T02:39:57.525Z,13.20
2022-12-26T02:42:36.298Z,13.20
2022-12-26T02:45:28.148Z,13.20
2022-12-26T02:48:03.537Z,13.20
2022-12-26T02:50:59.911Z,13.20
2022-12-26T02:53:52.527Z,13.10
2022-12-26T02:56:41.659Z,13.10
2022-12-26T02:59:53.887Z,13.10
2022-12-26T03:02:46.384Z,13.00
2022-12-26T03:05:40.208Z,13.10
2022-12-26T03:08:32.343Z,13.00
2022-12-26T03:11:18.379Z,13.00
2022-12-26T03:13:48.452Z,13.00
2022-12-26T03:16:35.203Z,13.10
2022-12-26T03:19:10.949Z,13.00
2022-12-26T03:21:44.171Z,13.00
2022-12-26T03:24:16.828Z,13.00
2022-12-26T03:26:49.803Z,13.00
2022-12-26T03:29:37.446Z,13.00
2022-12-26T03:32:07.945Z,13.00
2022-12-26T03:34:38.630Z,13.00
2022-12-26T03:37:48.869Z,13.00
2022-12-26T03:40:58.352Z,13.00
2022-12-26T03:43:59.303Z,13.00
2022-12-26T03:46:57.431Z,13.00
2022-12-26T03:49:48.256Z,13.00
2022-12-26T03:52:51.923Z,13.00
2022-12-26T03:55:44.758Z,13.00
2022-12-26T03:58:35.850Z,13.00
2022-12-26T04:01:25.507Z,13.00
2022-12-26T04:04:13.477Z,13.00
2022-12-26T04:07:04.118Z,13.00
2022-12-26T04:09:55.107Z,13.00
2022-12-26T04:12:49.054Z,13.00
2022-12-26T04:15:40.298Z,13.00
2022-12-26T04:18:31.811Z,13.00
2022-12-26T04:21:32.332Z,13.00
2022-12-26T04:24:25.096Z,13.00
2022-12-26T04:27:15.843Z,13.00
2022-12-26T04:30:02.174Z,13.00
2022-12-26T04:32:54.047Z,13.00
2022-12-26T04:35:45.442Z,13.00
2022-12-26T04:38:38.687Z,13.00
2022-12-26T04:41:27.642Z,13.00
2022-12-26T04:44:08.714Z,13.00
2022-12-26T04:46:40.485Z,13.00
2022-12-26T04:49:29.419Z,13.00
2022-12-26T04:51:59.687Z,13.00
2022-12-26T04:54:28.954Z,13.00
2022-12-26T04:56:57.667Z,13.00
2022-12-26T04:59:30.737Z,13.00
2022-12-26T05:02:16.894Z,13.00
2022-12-26T05:05:03.151Z,13.00
2022-12-26T05:07:51.737Z,13.00
2022-12-26T05:10:22.326Z,13.00
2022-12-26T05:12:54.281Z,13.00
2022-12-26T05:15:25.044Z,13.00
2022-12-26T05:18:11.115Z,13.00
2022-12-26T05:20:59.253Z,13.00
2022-12-26T05:23:52.849Z,13.00
2022-12-26T05:26:43.318Z,13.00
2022-12-26T05:29:15.920Z,13.00
2022-12-26T05:31:48.936Z,13.00
2022-12-26T05:34:20.957Z,13.00
2022-12-26T05:36:56.678Z,13.00
2022-12-26T05:39:26.367Z,13.20
2022-12-26T05:41:59.478Z,13.00
2022-12-26T05:44:31.081Z,13.00
2022-12-26T05:47:03.298Z,13.00
2022-12-26T05:49:31.751Z,13.00
2022-12-26T05:52:01.512Z,13.00
2022-12-26T05:54:29.689Z,13.10
2022-12-26T05:56:58.152Z,13.00
2022-12-26T05:59:29.656Z,13.00
2022-12-26T06:02:01.092Z,13.00
2022-12-26T06:04:33.762Z,13.10
2022-12-26T06:07:01.895Z,13.00
2022-12-26T06:09:32.563Z,13.00
2022-12-26T06:12:03.247Z,13.00
2022-12-26T06:14:31.530Z,13.00
2022-12-26T06:17:00.123Z,13.00
2022-12-26T06:19:29.174Z,13.10
2022-12-26T06:22:00.214Z,13.10
2022-12-26T06:24:28.408Z,13.10
2022-12-26T06:26:56.729Z,13.10
2022-12-26T06:29:27.907Z,13.10
2022-12-26T06:31:56.389Z,13.10
2022-12-26T06:34:25.817Z,13.10
2022-12-26T06:36:55.456Z,13.10
2022-12-26T06:39:30.101Z,13.10
2022-12-26T06:41:58.838Z,13.10
2022-12-26T06:44:29.170Z,13.10
2022-12-26T06:46:58.651Z,13.10
2022-12-26T06:49:32.737Z,13.20
2022-12-26T06:52:02.429Z,13.10
2022-12-26T06:54:34.056Z,13.10
2022-12-26T06:57:03.766Z,13.10
2022-12-26T06:59:35.167Z,13.10
2022-12-26T07:02:03.749Z,13.10
2022-12-26T07:04:33.131Z,13.10
2022-12-26T07:07:03.399Z,13.10
2022-12-26T07:09:34.147Z,13.10
2022-12-26T07:12:02.457Z,13.10
2022-12-26T07:14:30.696Z,13.10
2022-12-26T07:16:59.164Z,13.10
2022-12-26T07:19:27.500Z,13.10
2022-12-26T07:21:55.852Z,13.10
2022-12-26T07:24:24.583Z,13.10
2022-12-26T07:26:54.284Z,13.10
2022-12-26T07:29:22.924Z,13.10
2022-12-26T07:31:51.260Z,13.10
2022-12-26T07:34:19.535Z,13.10
2022-12-26T07:36:48.189Z,13.10
2022-12-26T07:39:16.599Z,13.10
2022-12-26T07:42:00.125Z,13.10
2022-12-26T07:44:31.609Z,13.10
2022-12-26T07:47:01.071Z,13.00
2022-12-26T07:49:29.283Z,13.00
2022-12-26T07:51:58.402Z,13.10
2022-12-26T07:54:28.587Z,13.00
2022-12-26T07:57:21.984Z,13.00
2022-12-26T07:59:47.213Z,13.10
2022-12-26T08:02:15.631Z,13.00
2022-12-26T08:04:44.212Z,13.00
2022-12-26T08:07:12.521Z,13.00
2022-12-26T08:09:43.010Z,13.10
2022-12-26T08:12:12.978Z,13.00
2022-12-26T08:14:41.761Z,13.00
2022-12-26T08:17:11.534Z,13.10
2022-12-26T08:19:39.924Z,13.00
2022-12-26T08:22:08.343Z,13.00
2022-12-26T08:24:36.780Z,13.00
2022-12-26T08:27:05.937Z,13.00
2022-12-26T08:29:34.491Z,13.00
2022-12-26T08:32:03.041Z,13.00
2022-12-26T08:34:35.148Z,13.00
2022-12-26T08:37:05.444Z,13.00
2022-12-26T08:39:33.963Z,13.00
2022-12-26T08:42:02.460Z,13.00
2022-12-26T08:44:31.118Z,13.00
2022-12-26T08:46:59.460Z,13.00
2022-12-26T08:49:28.183Z,13.00
2022-12-26T08:51:57.770Z,13.00
2022-12-26T08:54:26.146Z,13.00
2022-12-26T08:56:54.430Z,13.00
2022-12-26T08:59:23.097Z,12.90
2022-12-26T09:01:51.573Z,12.90
2022-12-26T09:04:19.807Z,12.90
2022-12-26T09:06:48.237Z,13.00
2022-12-26T09:09:17.827Z,13.00
2022-12-26T09:11:46.119Z,12.90
2022-12-26T09:14:14.554Z,12.90
2022-12-26T09:16:50.383Z,13.00
2022-12-26T09:19:20.875Z,13.00
2022-12-26T09:22:10.507Z,12.90
2022-12-26T09:24:40.285Z,13.00
2022-12-26T09:27:08.809Z,12.90
2022-12-26T09:29:38.222Z,12.90
2022-12-26T09:32:06.998Z,12.90
2022-12-26T09:34:35.422Z,12.90
2022-12-26T09:37:03.948Z,12.90
2022-12-26T09:39:33.079Z,12.90
2022-12-26T09:42:10.496Z,12.90
2022-12-26T09:44:49.565Z,12.90
2022-12-26T09:47:34.682Z,12.90
2022-12-26T09:50:08.853Z,12.90
2022-12-26T09:52:42.274Z,12.90
2022-12-26T09:55:35.209Z,12.90
2022-12-26T09:58:23.183Z,12.90
2022-12-26T10:00:54.323Z,12.90
2022-12-26T10:03:24.682Z,12.90
2022-12-26T10:06:10.377Z,12.90
2022-12-26T10:08:55.772Z,12.90
2022-12-26T10:11:37.942Z,12.90
2022-12-26T10:14:21.356Z,12.90
2022-12-26T10:16:55.796Z,12.90
2022-12-26T10:19:42.599Z,12.90
2022-12-26T10:22:44.552Z,12.90
2022-12-26T10:25:19.279Z,12.90
2022-12-26T10:27:50.992Z,12.50
2022-12-26T10:30:24.138Z,12.90
2022-12-26T10:32:58.266Z,12.90
2022-12-26T10:35:32.491Z,12.90
2022-12-26T10:38:05.695Z,12.90
2022-12-26T10:40:39.542Z,12.90
2022-12-26T10:43:28.623Z,12.90
2022-12-26T10:46:31.681Z,12.90
2022-12-26T10:49:00.689Z,12.90
2022-12-26T10:51:29.222Z,12.90
2022-12-26T10:53:58.129Z,12.90
2022-12-26T10:56:27.659Z,12.90
2022-12-26T10:59:03.077Z,12.90
2022-12-26T11:01:35.930Z,13.00
2022-12-26T11:04:07.326Z,13.00
2022-12-26T11:06:40.361Z,13.00
2022-12-26T11:09:23.729Z,13.00
2022-12-26T11:11:54.455Z,13.00
2022-12-26T11:14:34.608Z,13.00
2022-12-26T11:17:08.205Z,13.00
2022-12-26T11:19:38.558Z,13.00
2022-12-26T11:22:24.257Z,13.00
2022-12-26T11:25:16.542Z,13.00
2022-12-26T11:27:48.090Z,13.00
2022-12-26T11:30:26.892Z,13.00
2022-12-26T11:33:22.338Z,13.00
2022-12-26T11:35:55.434Z,13.10
2022-12-26T11:38:44.417Z,13.00
2022-12-26T11:41:32.993Z,13.00
2022-12-26T11:44:19.594Z,13.00
2022-12-26T11:46:52.353Z,13.10
2022-12-26T11:49:28.407Z,13.10
2022-12-26T11:51:59.750Z,13.10
2022-12-26T11:54:34.960Z,13.10
2022-12-26T11:57:22.196Z,13.00
2022-12-26T11:59:52.768Z,13.10
2022-12-26T12:02:29.987Z,13.00
2022-12-26T12:05:03.705Z,13.10
2022-12-26T12:07:44.844Z,13.10
2022-12-26T12:10:44.876Z,13.10
2022-12-26T12:13:22.734Z,13.00
2022-12-26T12:15:56.922Z,13.10
2022-12-26T12:18:37.457Z,13.00
2022-12-26T12:21:18.980Z,13.00
2022-12-26T12:24:04.330Z,13.00
2022-12-26T12:26:38.256Z,13.00
2022-12-26T12:29:24.733Z,13.00
2022-12-26T12:32:08.169Z,13.00
2022-12-26T12:34:44.954Z,13.00
2022-12-26T12:37:28.504Z,13.00
2022-12-26T12:40:09.052Z,13.00
2022-12-26T12:42:50.066Z,12.90
2022-12-26T12:45:39.591Z,13.00
2022-12-26T12:48:29.396Z,12.90
2022-12-26T12:51:05.733Z,12.80
2022-12-26T12:53:52.334Z,12.50
2022-12-26T12:56:30.635Z,12.30
2022-12-26T12:59:07.678Z,12.20
2022-12-26T13:01:42.170Z,12.10
2022-12-26T13:04:15.378Z,12.10
2022-12-26T13:06:50.429Z,12.10
2022-12-26T13:09:23.653Z,12.00
2022-12-26T13:11:58.340Z,11.80
2022-12-26T13:14:29.833Z,11.80
2022-12-26T13:17:04.412Z,11.80
2022-12-26T13:19:40.636Z,11.70
2022-12-26T13:22:22.201Z,11.70
2022-12-26T13:24:56.972Z,11.70
2022-12-26T13:27:30.277Z,11.80
2022-12-26T13:29:58.779Z,11.70
2022-12-26T13:32:29.872Z,11.70
2022-12-26T13:35:00.195Z,11.80
2022-12-26T13:37:57.995Z,11.90
2022-12-26T13:40:31.228Z,11.90
2022-12-26T13:43:21.811Z,11.90
2022-12-26T13:45:57.381Z,11.90
2022-12-26T13:48:54.982Z,11.90
2022-12-26T13:51:54.391Z,11.90
2022-12-26T13:54:24.561Z,11.80
2022-12-26T13:57:28.421Z,11.70
2022-12-26T14:00:17.150Z,11.70
2022-12-26T14:03:29.280Z,11.50
2022-12-26T14:06:43.774Z,11.50
2022-12-26T14:09:50.297Z,11.40
2022-12-26T14:12:35.931Z,11.30
2022-12-26T14:15:31.320Z,11.30
2022-12-26T14:18:10.401Z,11.40
2022-12-26T14:20:47.856Z,11.40
2022-12-26T14:23:36.530Z,11.30
2022-12-26T14:26:14.340Z,11.30
2022-12-26T14:28:56.615Z,11.30
2022-12-26T14:31:36.529Z,11.30
2022-12-26T14:34:16.015Z,11.30
2022-12-26T14:36:50.814Z,11.30
2022-12-26T14:39:29.669Z,11.30
2022-12-26T14:42:37.028Z,11.30
2022-12-26T14:45:13.584Z,11.30
2022-12-26T14:47:45.445Z,11.30
2022-12-26T14:50:37.803Z,11.20
2022-12-26T14:53:39.300Z,11.20
2022-12-26T14:56:34.260Z,11.20
2022-12-26T14:59:25.556Z,11.10
2022-12-26T15:02:04.479Z,11.10
2022-12-26T15:05:01.078Z,11.00
2022-12-26T15:08:12.227Z,11.00
2022-12-26T15:11:06.859Z,10.90
2022-12-26T15:14:09.240Z,10.90
2022-12-26T15:16:54.175Z,10.80
2022-12-26T15:20:11.561Z,10.70
2022-12-26T15:23:12.370Z,10.60
2022-12-26T15:26:06.182Z,10.50
2022-12-26T15:29:18.128Z,10.50
2022-12-26T15:31:56.958Z,10.50
2022-12-26T15:34:51.986Z,10.50
2022-12-26T15:37:32.704Z,10.50
2022-12-26T15:40:14.709Z,10.60
2022-12-26T15:43:04.571Z,10.60
2022-12-26T15:45:48.359Z,10.60
2022-12-26T15:48:35.743Z,10.60
2022-12-26T15:51:11.124Z,10.70
2022-12-26T15:53:56.148Z,10.70
2022-12-26T15:56:45.861Z,10.70
2022-12-26T15:59:57.549Z,10.70
2022-12-26T16:02:42.031Z,10.70
2022-12-26T16:05:35.585Z,10.70
2022-12-26T16:08:44.013Z,10.80
2022-12-26T16:11:20.881Z,10.80
2022-12-26T16:13:54.679Z,10.80
2022-12-26T16:16:29.181Z,10.80
2022-12-26T16:18:57.808Z,10.70
2022-12-26T16:21:43.261Z,10.60
2022-12-26T16:24:13.585Z,10.50
2022-12-26T16:26:45.148Z,10.30
2022-12-26T16:29:19.817Z,10.30
2022-12-26T16:31:48.694Z,10.20
2022-12-26T16:34:20.388Z,10.20
2022-12-26T16:36:51.353Z,10.20
2022-12-26T16:39:24.373Z,10.10
2022-12-26T16:42:05.476Z,10.20
2022-12-26T16:44:39.320Z,10.10
2022-12-26T16:47:11.294Z,10.10
2022-12-26T16:49:41.612Z,10.00
2022-12-26T16:52:39.228Z,10.10
2022-12-26T16:55:42.004Z,10.00
2022-12-26T16:58:26.905Z,10.00
2022-12-26T17:01:09.353Z,10.10
2022-12-26T17:03:44.555Z,10.00
2022-12-26T17:06:15.959Z,10.00
2022-12-26T17:08:47.242Z,10.00
2022-12-26T17:11:16.477Z,10.00
2022-12-26T17:13:52.790Z,9.90
2022-12-26T17:16:25.294Z,9.90
2022-12-26T17:18:55.358Z,9.90
2022-12-26T17:21:30.184Z,9.90
2022-12-26T17:24:22.444Z,9.90
2022-12-26T17:27:16.039Z,9.90
2022-12-26T17:29:55.756Z,9.90
2022-12-26T17:32:35.961Z,9.90
2022-12-26T17:35:07.852Z,9.90
2022-12-26T17:37:36.714Z,9.90
2022-12-26T17:40:19.686Z,9.90
2022-12-26T17:42:50.938Z,9.80
2022-12-26T17:45:22.135Z,9.80
2022-12-26T17:47:53.738Z,9.90
2022-12-26T17:50:23.061Z,9.70
2022-12-26T17:52:52.093Z,9.70
2022-12-26T17:55:25.567Z,10.10
2022-12-26T17:57:54.431Z,9.80
2022-12-26T18:00:24.745Z,9.70
2022-12-26T18:02:55.222Z,9.70
2022-12-26T18:05:23.737Z,9.80
2022-12-26T18:07:53.077Z,9.80
2022-12-26T18:10:24.299Z,9.80
2022-12-26T18:12:53.344Z,9.80
2022-12-26T18:15:22.186Z,9.90
2022-12-26T18:17:52.013Z,9.80
2022-12-26T18:20:24.589Z,9.80
2022-12-26T18:22:53.281Z,9.90
2022-12-26T18:25:23.372Z,9.90
2022-12-26T18:27:52.594Z,9.90
2022-12-26T18:30:23.591Z,9.90
2022-12-26T18:32:53.726Z,9.90
2022-12-26T18:35:23.654Z,10.10
2022-12-26T18:37:54.070Z,9.90
2022-12-26T18:40:29.496Z,9.90
2022-12-26T18:42:58.044Z,9.90
2022-12-26T18:45:26.678Z,9.90
2022-12-26T18:47:55.218Z,9.90
2022-12-26T18:50:25.652Z,9.90
2022-12-26T18:52:54.247Z,9.90
2022-12-26T18:55:23.264Z,10.10
2022-12-26T18:57:52.193Z,9.90
2022-12-26T19:00:21.784Z,9.90
2022-12-26T19:02:50.396Z,9.90
2022-12-26T19:05:21.043Z,9.90
2022-12-26T19:07:51.079Z,9.90
2022-12-26T19:10:22.237Z,9.90
2022-12-26T19:12:51.383Z,10.00
2022-12-26T19:15:20.498Z,9.80
2022-12-26T19:17:49.041Z,9.80
2022-12-26T19:20:20.441Z,9.80
2022-12-26T19:22:51.901Z,9.80
2022-12-26T19:25:22.221Z,9.80
2022-12-26T19:27:50.818Z,9.80
2022-12-26T19:30:20.345Z,9.80
2022-12-26T19:32:49.170Z,9.80
2022-12-26T19:35:18.554Z,9.80
2022-12-26T19:37:46.784Z,9.80
2022-12-26T19:40:22.939Z,9.70
2022-12-26T19:42:53.412Z,9.80
2022-12-26T19:45:22.034Z,9.80
2022-12-26T19:47:50.373Z,9.70
2022-12-26T19:50:19.267Z,9.70
2022-12-26T19:52:47.604Z,9.70
2022-12-26T19:55:17.672Z,9.70
2022-12-26T19:57:46.312Z,9.70
2022-12-26T20:00:16.720Z,9.70
2022-12-26T20:02:45.972Z,9.70
2022-12-26T20:05:15.356Z,9.60
2022-12-26T20:07:43.825Z,9.60
2022-12-26T20:10:12.235Z,9.60
2022-12-26T20:12:42.186Z,9.70
2022-12-26T20:15:11.368Z,9.60
2022-12-26T20:17:40.198Z,9.60
2022-12-26T20:20:09.199Z,9.60
2022-12-26T20:22:37.585Z,9.60
2022-12-26T20:25:09.790Z,9.60
2022-12-26T20:27:38.147Z,9.50
2022-12-26T20:30:10.139Z,9.50
2022-12-26T20:32:38.853Z,9.50
2022-12-26T20:35:08.034Z,9.50
2022-12-26T20:37:36.834Z,9.50
2022-12-26T20:40:05.863Z,9.50
2022-12-26T20:42:34.509Z,9.50
2022-12-26T20:45:03.105Z,9.50
2022-12-26T20:47:33.041Z,9.50
2022-12-26T20:50:01.407Z,9.50
2022-12-26T20:52:33.493Z,9.50
2022-12-26T20:55:03.910Z,9.50
2022-12-26T20:57:36.902Z,9.50
2022-12-26T21:00:08.217Z,9.50
2022-12-26T21:02:38.266Z,9.50
2022-12-26T21:05:10.337Z,9.50
2022-12-26T21:07:40.888Z,9.50
2022-12-26T21:10:11.227Z,9.50
2022-12-26T21:12:41.221Z,9.50
2022-12-26T21:15:10.680Z,9.60
2022-12-26T21:17:40.969Z,9.50
2022-12-26T21:20:10.246Z,9.60
2022-12-26T21:22:39.172Z,9.60
2022-12-26T21:25:09.329Z,9.60
2022-12-26T21:27:41.558Z,9.50
2022-12-26T21:30:18.971Z,9.50
2022-12-26T21:32:53.125Z,9.60
2022-12-26T21:35:25.164Z,9.60
2022-12-26T21:37:54.220Z,9.60
2022-12-26T21:40:28.266Z,9.60
2022-12-26T21:42:59.839Z,9.50
2022-12-26T21:45:30.735Z,9.60
2022-12-26T21:48:00.985Z,9.60
2022-12-26T21:50:31.742Z,9.60
2022-12-26T21:53:04.034Z,9.50
2022-12-26T21:55:38.243Z,9.60
2022-12-26T21:58:08.007Z,9.60
2022-12-26T22:00:39.092Z,9.60
2022-12-26T22:03:26.746Z,9.50
2022-12-26T22:05:55.183Z,9.50
2022-12-26T22:08:23.409Z,9.50
2022-12-26T22:11:09.071Z,9.50
2022-12-26T22:13:43.004Z,9.50
2022-12-26T22:16:12.972Z,9.50
2022-12-26T22:18:44.330Z,9.50
2022-12-26T22:21:19.234Z,9.50
2022-12-26T22:23:50.791Z,9.50
2022-12-26T22:26:23.560Z,9.40
2022-12-26T22:28:51.939Z,9.50
2022-12-26T22:31:22.300Z,9.40
2022-12-26T22:33:56.910Z,9.40
2022-12-26T22:36:26.032Z,9.40
2022-12-26T22:38:54.504Z,9.40
2022-12-26T22:41:23.141Z,9.40
2022-12-26T22:43:51.367Z,9.40
2022-12-26T22:46:19.923Z,9.40
2022-12-26T22:48:48.255Z,9.30
2022-12-26T22:51:20.106Z,9.30
2022-12-26T22:53:48.582Z,9.30
2022-12-26T22:56:17.108Z,9.30
2022-12-26T22:58:45.338Z,9.30
2022-12-26T23:01:14.598Z,9.30
2022-12-26T23:03:43.034Z,9.30
2022-12-26T23:06:21.794Z,9.30
2022-12-26T23:08:51.874Z,9.30
2022-12-26T23:11:20.684Z,9.30
2022-12-26T23:13:50.251Z,9.30
2022-12-26T23:16:33.942Z,9.30
2022-12-26T23:19:31.218Z,9.30
2022-12-26T23:22:02.774Z,9.30
2022-12-26T23:24:32.607Z,9.30
2022-12-26T23:27:23.091Z,9.30
2022-12-26T23:30:09.727Z,9.20
2022-12-26T23:32:39.440Z,9.20
2022-12-26T23:35:09.408Z,9.20
2022-12-26T23:37:39.598Z,9.20
2022-12-26T23:40:10.126Z,9.20
2022-12-26T23:42:38.922Z,9.20
2022-12-26T23:45:09.209Z,9.30
2022-12-26T23:47:38.045Z,9.20
2022-12-26T23:50:07.343Z,9.20
2022-12-26T23:52:40.007Z,9.20
2022-12-26T23:55:08.821Z,9.20
2022-12-26T23:57:37.402Z,9.20
